Time;durP1;ratioP1;P1;durP2;ratioP2;P2;SDS_P1;SDS_P2;PMS_P1;PMS_P2;Temp;Humidity;BMP_temperature;BMP_pressure;BME280_temperature;BME280_humidity;BME280_pressure;Samples;Min_cycle;Max_cycle;Signal;HPM_P1;HPM_P2
2022/07/03 00:01:32;;;;;;;15.90;9.35;;;17.20;99.90;;;;;;5104167;28;20038;-78
2022/07/03 00:04:01;;;;;;;18.63;9.20;;;17.10;99.90;;;;;;5105122;28;20131;-78
2022/07/03 00:06:30;;;;;;;16.27;10.10;;;17.00;99.90;;;;;;5105068;28;20074;-78
2022/07/03 00:08:57;;;;;;;13.30;9.80;;;16.90;99.90;;;;;;5100513;28;20055;-78
2022/07/03 00:11:23;;;;;;;14.52;10.30;;;16.90;99.90;;;;;;5099804;28;20084;-78
2022/07/03 00:13:51;;;;;;;15.32;10.35;;;16.90;99.90;;;;;;5101446;28;20097;-78
2022/07/03 00:16:17;;;;;;;15.82;10.80;;;16.80;99.90;;;;;;5102085;28;20153;-78
2022/07/03 00:18:44;;;;;;;17.48;10.38;;;16.80;99.90;;;;;;5100952;28;20435;-78
2022/07/03 00:21:16;;;;;;;14.48;10.95;;;16.80;99.90;;;;;;5101843;28;20055;-78
2022/07/03 00:23:57;;;;;;;18.02;12.07;;;16.80;99.90;;;;;;5102720;28;20051;-78
2022/07/03 00:26:25;;;;;;;13.90;10.82;;;16.70;99.90;;;;;;5101772;28;20048;-78
2022/07/03 00:28:54;;;;;;;18.45;11.25;;;16.70;99.90;;;;;;5103903;28;20066;-78
2022/07/03 00:31:24;;;;;;;16.77;11.55;;;16.60;99.90;;;;;;5103524;28;20044;-78
2022/07/03 00:33:54;;;;;;;14.27;11.75;;;16.60;99.90;;;;;;5103094;28;20091;-78
2022/07/03 00:36:20;;;;;;;14.43;10.98;;;16.50;99.90;;;;;;5101432;28;20048;-78
2022/07/03 00:38:46;;;;;;;18.75;12.70;;;16.50;99.90;;;;;;5102288;28;20166;-78
2022/07/03 00:41:26;;;;;;;21.20;12.73;;;16.50;99.90;;;;;;5102381;28;20059;-78
2022/07/03 00:43:52;;;;;;;17.50;12.18;;;16.40;99.90;;;;;;5102210;28;20105;-78
2022/07/03 00:46:23;;;;;;;15.75;12.73;;;16.40;99.90;;;;;;5105275;28;20048;-78
2022/07/03 00:48:50;;;;;;;15.75;12.02;;;16.40;99.90;;;;;;5103091;28;20050;-78
2022/07/03 00:51:21;;;;;;;16.23;12.25;;;16.30;99.90;;;;;;5103080;28;20043;-78
2022/07/03 00:53:48;;;;;;;17.27;11.57;;;16.30;99.90;;;;;;5103697;28;20051;-78
2022/07/03 00:56:16;;;;;;;16.92;12.23;;;16.30;99.90;;;;;;5100933;28;20044;-78
2022/07/03 00:58:42;;;;;;;17.08;13.02;;;16.30;99.90;;;;;;5103313;28;20044;-78
2022/07/03 01:01:10;;;;;;;14.30;12.55;;;16.20;99.90;;;;;;5102743;28;20425;-78
2022/07/03 01:03:43;;;;;;;18.10;12.60;;;16.20;99.90;;;;;;5100753;28;20047;-78
2022/07/03 01:06:15;;;;;;;17.55;14.10;;;16.20;99.90;;;;;;5104360;28;20044;-78
2022/07/03 01:08:50;;;;;;;16.80;12.83;;;16.10;99.90;;;;;;5102893;28;20114;-78
2022/07/03 01:11:33;;;;;;;17.33;12.25;;;16.10;99.90;;;;;;5102959;28;20327;-78
2022/07/03 01:14:26;;;;;;;17.13;12.93;;;16.10;99.90;;;;;;5101311;28;20068;-78
2022/07/03 01:17:05;;;;;;;;;;;16.00;99.90;;;;;;5099381;28;20048;-78
2022/07/03 01:19:37;;;;;;;18.15;12.30;;;16.00;99.90;;;;;;5096837;28;19920;-78
2022/07/03 01:22:39;;;;;;;15.98;12.52;;;15.90;99.90;;;;;;5098174;28;20052;-78
2022/07/03 01:25:34;;;;;;;19.58;12.75;;;15.80;99.90;;;;;;5098490;28;20401;-78
2022/07/03 01:28:20;;;;;;;17.58;12.85;;;15.70;99.90;;;;;;5097464;28;20059;-78
2022/07/03 01:30:49;;;;;;;20.50;14.05;;;15.70;99.90;;;;;;5099121;28;20044;-78
2022/07/03 01:33:22;;;;;;;18.08;13.43;;;15.70;99.90;;;;;;5101858;28;20040;-78
2022/07/03 01:35:51;;;;;;;;;;;15.70;99.90;;;;;;5102063;28;20094;-78
2022/07/03 01:38:17;;;;;;;14.82;11.88;;;15.60;99.90;;;;;;5104692;28;19927;-78
2022/07/03 01:40:43;;;;;;;17.08;11.77;;;15.50;99.90;;;;;;5101918;28;20048;-78
2022/07/03 01:43:12;;;;;;;16.92;12.18;;;15.40;99.90;;;;;;5102173;28;20024;-78
2022/07/03 01:45:42;;;;;;;20.23;12.60;;;15.30;99.90;;;;;;5101281;28;20134;-78
2022/07/03 01:48:09;;;;;;;16.17;12.55;;;15.30;99.90;;;;;;5102630;28;20039;-78
2022/07/03 01:50:37;;;;;;;14.23;12.05;;;15.30;99.90;;;;;;5100733;28;20044;-78
2022/07/03 01:53:05;;;;;;;18.02;12.10;;;15.30;99.90;;;;;;5102319;28;20055;-78
2022/07/03 01:55:32;;;;;;;16.75;11.40;;;15.20;99.90;;;;;;5103857;28;20036;-78
2022/07/03 01:57:58;;;;;;;14.98;11.05;;;15.20;99.90;;;;;;5101681;28;20043;-78
2022/07/03 02:00:24;;;;;;;16.88;11.40;;;15.10;99.90;;;;;;5094670;28;20532;-78
2022/07/03 02:02:59;;;;;;;16.77;11.05;;;15.10;99.90;;;;;;5098275;28;20060;-78
2022/07/03 02:05:37;;;;;;;16.15;11.23;;;15.10;99.90;;;;;;5099681;28;20048;-78
2022/07/03 02:08:27;;;;;;;16.75;11.38;;;15.00;99.90;;;;;;5096715;28;20047;-78
2022/07/03 02:11:19;;;;;;;20.48;12.13;;;15.00;99.90;;;;;;5099581;28;20028;-78
2022/07/03 02:13:55;;;;;;;16.73;12.43;;;14.90;99.90;;;;;;5093926;28;20055;-78
2022/07/03 02:16:26;;;;;;;17.38;12.43;;;14.80;99.90;;;;;;5101265;28;20055;-78
2022/07/03 02:19:03;;;;;;;17.90;12.45;;;14.80;99.90;;;;;;5100846;28;20050;-78
2022/07/03 02:21:29;;;;;;;16.15;12.27;;;14.70;99.90;;;;;;5101588;28;20048;-78
2022/07/03 02:24:26;;;;;;;17.55;12.40;;;14.70;99.90;;;;;;5099775;28;20067;-78
2022/07/03 02:27:06;;;;;;;16.65;13.07;;;14.80;99.90;;;;;;5084478;28;20063;-78
2022/07/03 02:29:35;;;;;;;14.95;12.65;;;14.70;99.90;;;;;;5101391;28;20048;-78
2022/07/03 02:32:06;;;;;;;17.35;12.55;;;14.70;99.90;;;;;;5100548;28;20028;-78
2022/07/03 02:34:34;;;;;;;16.13;13.38;;;14.70;99.90;;;;;;5101517;28;20111;-78
2022/07/03 02:37:15;;;;;;;17.27;12.98;;;14.70;99.90;;;;;;5102431;28;20478;-77
2022/07/03 02:39:52;;;;;;;21.33;12.90;;;14.80;99.90;;;;;;5100824;28;20048;-78
2022/07/03 02:42:56;;;;;;;19.70;13.43;;;14.80;99.90;;;;;;5099298;28;20032;-78
2022/07/03 02:45:29;;;;;;;19.20;13.75;;;14.80;99.90;;;;;;5101044;28;20056;-79
2022/07/03 02:48:05;;;;;;;18.40;12.10;;;14.80;99.90;;;;;;5101074;28;20047;-78
2022/07/03 02:50:41;;;;;;;25.92;13.85;;;14.80;99.90;;;;;;5101670;28;20032;-78
2022/07/03 02:53:17;;;;;;;17.45;13.32;;;14.90;99.90;;;;;;5102216;28;20072;-78
2022/07/03 02:55:46;;;;;;;21.77;14.43;;;14.90;99.90;;;;;;5100202;28;20048;-78
2022/07/03 02:58:27;;;;;;;19.80;14.70;;;15.00;99.90;;;;;;5101547;28;20044;-78
2022/07/03 03:00:55;;;;;;;19.02;13.52;;;15.00;99.90;;;;;;5101369;28;20051;-78
2022/07/03 03:03:32;;;;;;;19.65;13.25;;;15.00;99.90;;;;;;5099291;28;20044;-78
2022/07/03 03:06:11;;;;;;;18.70;12.77;;;15.10;99.90;;;;;;5098349;28;20486;-78
2022/07/03 03:08:49;;;;;;;17.50;13.82;;;15.10;99.90;;;;;;5097362;28;20040;-78
2022/07/03 03:11:34;;;;;;;19.67;14.02;;;15.10;99.90;;;;;;5096189;28;20075;-78
2022/07/03 03:14:03;;;;;;;20.48;13.65;;;15.10;99.90;;;;;;5094350;28;20048;-77
2022/07/03 03:16:29;;;;;;;17.80;13.30;;;15.10;99.90;;;;;;5095029;28;20044;-77
2022/07/03 03:18:55;;;;;;;18.65;12.75;;;15.10;99.90;;;;;;5096696;28;20059;-78
2022/07/03 03:21:25;;;;;;;15.85;12.13;;;15.10;99.90;;;;;;5097020;28;20051;-78
2022/07/03 03:23:52;;;;;;;18.52;12.60;;;15.00;99.90;;;;;;5096676;28;20448;-78
2022/07/03 03:26:19;;;;;;;20.33;13.02;;;15.00;99.90;;;;;;5096556;28;20507;-78
2022/07/03 03:28:45;;;;;;;22.52;13.70;;;15.00;99.90;;;;;;5096853;28;20123;-78
2022/07/03 03:31:13;;;;;;;18.52;13.18;;;15.00;99.90;;;;;;5096817;28;20111;-78
2022/07/03 03:33:44;;;;;;;19.40;13.13;;;15.00;99.90;;;;;;5096762;28;20077;-78
2022/07/03 03:36:11;;;;;;;18.85;13.85;;;15.00;99.90;;;;;;5096723;28;20047;-78
2022/07/03 03:38:38;;;;;;;17.38;13.98;;;15.00;99.90;;;;;;5096552;28;20043;-78
2022/07/03 03:41:05;;;;;;;19.13;13.70;;;15.00;99.90;;;;;;5096659;28;20074;-78
2022/07/03 03:43:32;;;;;;;18.65;12.48;;;15.00;99.90;;;;;;5096451;28;20107;-78
2022/07/03 03:45:58;;;;;;;18.73;13.27;;;15.00;99.90;;;;;;5096608;28;20044;-78
2022/07/03 03:48:26;;;;;;;18.30;12.93;;;15.00;99.90;;;;;;5096501;28;20036;-78
2022/07/03 03:50:51;;;;;;;17.90;12.80;;;15.00;99.90;;;;;;5096459;28;20040;-78
2022/07/03 03:53:19;;;;;;;20.20;12.65;;;15.00;99.90;;;;;;5096429;28;20047;-78
2022/07/03 03:56:05;;;;;;;16.38;12.85;;;15.00;99.90;;;;;;5096014;28;20123;-78
2022/07/03 03:58:32;;;;;;;15.63;11.80;;;15.00;99.90;;;;;;5096217;28;20032;-78
2022/07/03 04:00:59;;;;;;;20.23;14.68;;;15.00;99.90;;;;;;5094874;28;20056;-78
2022/07/03 04:03:27;;;;;;;20.65;13.23;;;15.10;99.90;;;;;;5095388;28;20043;-78
2022/07/03 04:05:54;;;;;;;19.52;14.02;;;15.10;99.90;;;;;;5096225;28;20044;-78
2022/07/03 04:08:21;;;;;;;16.65;12.77;;;15.20;99.90;;;;;;5095927;28;20036;-78
2022/07/03 04:10:47;;;;;;;18.80;12.15;;;15.30;99.90;;;;;;5096107;28;20040;-78
2022/07/03 04:13:14;;;;;;;17.17;13.48;;;15.30;99.90;;;;;;5095743;28;20401;-78
2022/07/03 04:15:40;;;;;;;17.63;14.10;;;15.40;99.90;;;;;;5095724;28;20440;-78
2022/07/03 04:18:06;;;;;;;20.75;14.90;;;15.60;99.90;;;;;;5095596;28;20039;-78
2022/07/03 04:20:32;;;;;;;20.42;15.55;;;15.60;99.90;;;;;;5095811;28;20474;-78
2022/07/03 04:22:58;;;;;;;19.88;14.60;;;15.80;99.90;;;;;;5095567;28;20048;-78
2022/07/03 04:25:24;;;;;;;17.65;13.77;;;15.80;99.90;;;;;;5095814;28;20043;-78
2022/07/03 04:27:49;;;;;;;17.02;13.40;;;15.90;99.90;;;;;;5095758;28;20036;-78
2022/07/03 04:30:15;;;;;;;14.63;9.95;;;15.90;99.90;;;;;;5095658;28;20078;-78
2022/07/03 04:32:41;;;;;;;14.95;9.27;;;16.00;99.90;;;;;;5095675;28;20050;-78
2022/07/03 04:35:07;;;;;;;14.55;9.25;;;16.00;99.90;;;;;;5095418;28;20487;-78
2022/07/03 04:37:33;;;;;;;13.48;8.27;;;16.10;99.90;;;;;;5095520;28;20043;-78
2022/07/03 04:39:58;;;;;;;15.70;9.88;;;16.20;99.90;;;;;;5095474;28;20040;-78
2022/07/03 04:42:24;;;;;;;16.45;10.13;;;16.20;99.90;;;;;;5095397;28;20055;-78
2022/07/03 04:44:50;;;;;;;12.93;10.00;;;16.30;99.90;;;;;;5095414;28;20185;-78
2022/07/03 04:47:16;;;;;;;13.73;10.27;;;16.30;99.90;;;;;;5095087;28;20495;-78
2022/07/03 04:49:42;;;;;;;14.43;9.40;;;16.40;99.90;;;;;;5093824;28;20040;-78
2022/07/03 04:52:09;;;;;;;16.98;8.90;;;16.40;99.90;;;;;;5095283;28;20040;-78
2022/07/03 04:54:35;;;;;;;16.75;8.48;;;16.40;99.90;;;;;;5094922;28;20487;-78
2022/07/03 04:57:01;;;;;;;14.82;7.72;;;16.50;99.90;;;;;;5095401;28;20048;-78
2022/07/03 04:59:27;;;;;;;12.38;8.18;;;16.50;99.90;;;;;;5094887;28;20079;-78
2022/07/03 05:01:53;;;;;;;12.50;7.35;;;16.60;99.90;;;;;;5094996;28;20153;-78
2022/07/03 05:04:18;;;;;;;10.13;7.38;;;16.60;99.90;;;;;;5095039;28;20035;-78
2022/07/03 05:06:45;;;;;;;10.60;7.45;;;16.60;99.90;;;;;;5094709;28;20452;-78
2022/07/03 05:09:10;;;;;;;10.77;7.55;;;16.70;99.90;;;;;;5094976;28;20039;-78
2022/07/03 05:11:36;;;;;;;9.77;7.47;;;16.70;99.90;;;;;;5094818;28;20039;-78
2022/07/03 05:14:03;;;;;;;13.27;7.70;;;16.80;99.90;;;;;;5094805;28;20089;-78
2022/07/03 05:16:29;;;;;;;12.32;6.57;;;16.80;99.90;;;;;;5094841;28;20040;-78
2022/07/03 05:18:55;;;;;;;14.48;7.47;;;16.90;99.90;;;;;;5094177;28;20131;-78
2022/07/03 05:21:20;;;;;;;10.02;7.22;;;16.90;99.90;;;;;;5094663;28;20051;-78
2022/07/03 05:23:46;;;;;;;10.93;6.95;;;17.00;99.90;;;;;;5094750;28;20040;-78
2022/07/03 05:26:12;;;;;;;15.63;7.70;;;17.10;99.90;;;;;;5094600;28;20044;-78
2022/07/03 05:28:37;;;;;;;14.77;7.65;;;17.10;99.90;;;;;;5092573;28;20098;-78
2022/07/03 05:31:03;;;;;;;11.38;7.63;;;17.30;99.90;;;;;;5094510;28;20036;-78
2022/07/03 05:33:29;;;;;;;13.48;8.05;;;17.40;99.90;;;;;;5094536;28;20466;-78
2022/07/03 05:35:58;;;;;;;12.05;8.10;;;17.50;99.90;;;;;;5092974;28;20058;-78
2022/07/03 05:41:09;;;;;;;12.60;8.80;;;17.50;99.90;;;;;;5094330;28;20047;-78
2022/07/03 05:43:34;;;;;;;13.00;7.97;;;17.50;99.90;;;;;;5094001;28;20047;-77
2022/07/03 05:46:00;;;;;;;13.32;8.00;;;17.70;99.90;;;;;;5093922;28;20052;-77
2022/07/03 05:48:25;;;;;;;12.35;8.27;;;17.80;99.90;;;;;;5094303;28;20038;-77
2022/07/03 05:50:51;;;;;;;13.30;8.05;;;18.00;99.90;;;;;;5093928;28;20131;-77
2022/07/03 05:53:17;;;;;;;10.38;7.65;;;18.00;99.90;;;;;;5094118;28;20044;-77
2022/07/03 05:55:43;;;;;;;17.30;7.07;;;18.00;99.90;;;;;;5094373;28;20158;-77
2022/07/03 05:58:08;;;;;;;11.35;7.40;;;18.00;99.90;;;;;;5094129;28;20097;-77
2022/07/03 06:00:34;;;;;;;9.48;7.05;;;17.90;99.90;;;;;;5093798;28;20067;-78
2022/07/03 06:03:01;;;;;;;10.73;6.95;;;17.90;99.90;;;;;;5093925;28;20051;-78
2022/07/03 06:05:27;;;;;;;10.60;6.47;;;17.80;99.90;;;;;;5092577;28;20139;-78
2022/07/03 06:07:53;;;;;;;13.88;8.63;;;17.80;99.90;;;;;;5093625;28;20091;-78
2022/07/03 06:10:18;;;;;;;15.57;7.15;;;17.80;99.90;;;;;;5092488;28;20044;-78
2022/07/03 06:12:44;;;;;;;11.48;7.07;;;17.80;99.90;;;;;;5093911;28;20113;-77
2022/07/03 06:15:10;;;;;;;11.43;7.10;;;17.90;99.90;;;;;;5093779;28;20417;-78
2022/07/03 06:17:36;;;;;;;15.52;7.20;;;17.80;99.90;;;;;;5093761;28;20371;-78
2022/07/03 06:20:03;;;;;;;11.63;7.20;;;17.70;99.90;;;;;;5093398;28;20054;-78
2022/07/03 06:22:28;;;;;;;11.07;7.63;;;17.70;99.90;;;;;;5093770;28;20048;-78
2022/07/03 06:24:54;;;;;;;13.10;7.85;;;17.70;99.90;;;;;;5093749;28;20055;-78
2022/07/03 06:27:20;;;;;;;11.95;6.70;;;17.90;99.90;;;;;;5093578;28;20036;-78
2022/07/03 06:29:45;;;;;;;13.20;8.48;;;18.20;99.90;;;;;;5093545;28;20040;-78
2022/07/03 06:32:11;;;;;;;14.70;8.05;;;18.60;99.90;;;;;;5094071;28;20429;-78
2022/07/03 06:34:36;;;;;;;11.90;7.03;;;18.80;99.90;;;;;;5093417;28;20044;-78
2022/07/03 06:37:02;;;;;;;10.20;5.88;;;19.10;99.90;;;;;;5093495;28;20047;-78
2022/07/03 06:39:28;;;;;;;14.00;5.82;;;19.40;99.90;;;;;;5093516;28;20162;-78
2022/07/03 06:41:53;;;;;;;9.63;4.65;;;19.60;99.90;;;;;;5095611;28;20395;-78
2022/07/03 06:44:19;;;;;;;7.95;4.53;;;19.90;99.90;;;;;;5097359;28;20066;-78
2022/07/03 06:46:45;;;;;;;9.32;4.93;;;20.10;99.90;;;;;;5097652;28;20478;-78
2022/07/03 06:49:10;;;;;;;9.43;4.65;;;20.30;99.90;;;;;;5097595;28;20040;-78
2022/07/03 06:51:36;;;;;;;6.35;4.10;;;20.50;99.90;;;;;;5097525;28;20093;-78
2022/07/03 06:54:01;;;;;;;10.25;5.03;;;20.70;99.90;;;;;;5097402;28;20129;-78
2022/07/03 06:56:27;;;;;;;12.68;5.10;;;20.80;99.90;;;;;;5097390;28;20048;-78
2022/07/03 06:58:53;;;;;;;7.50;4.60;;;20.80;99.90;;;;;;5097335;28;20044;-78
2022/07/03 07:01:18;;;;;;;12.38;4.60;;;20.90;99.90;;;;;;5095909;28;20055;-78
2022/07/03 07:03:44;;;;;;;7.57;3.75;;;21.00;99.90;;;;;;5097424;28;20072;-78
2022/07/03 07:06:10;;;;;;;10.77;3.83;;;21.20;99.90;;;;;;5097313;28;20123;-78
2022/07/03 07:08:35;;;;;;;6.43;3.55;;;21.40;99.90;;;;;;5096944;28;20546;-77
2022/07/03 07:11:01;;;;;;;7.30;3.08;;;21.50;99.90;;;;;;5097041;28;20040;-78
2022/07/03 07:13:27;;;;;;;7.22;2.72;;;21.70;99.90;;;;;;5097001;28;20050;-77
2022/07/03 07:15:53;;;;;;;6.78;3.30;;;21.90;99.90;;;;;;5097032;28;20046;-77
2022/07/03 07:18:18;;;;;;;10.25;3.53;;;21.70;99.90;;;;;;5095388;28;20093;-77
2022/07/03 07:20:44;;;;;;;6.85;3.00;;;21.50;99.90;;;;;;5095328;28;20076;-78
2022/07/03 07:23:09;;;;;;;6.15;3.55;;;21.70;99.90;;;;;;5089912;28;20044;-77
2022/07/03 07:25:36;;;;;;;4.55;2.40;;;21.80;99.90;;;;;;5083713;28;20468;-77
2022/07/03 07:28:02;;;;;;;6.38;2.70;;;21.90;99.90;;;;;;5076239;28;20041;-79
2022/07/03 07:30:27;;;;;;;8.40;2.75;;;22.00;99.90;;;;;;5076354;28;20044;-79
2022/07/03 07:32:53;;;;;;;6.38;1.90;;;22.10;99.90;;;;;;5076031;28;20087;-76
2022/07/03 07:35:19;;;;;;;8.20;2.85;;;22.20;99.90;;;;;;5076237;28;20098;-79
2022/07/03 07:37:44;;;;;;;6.90;2.40;;;22.10;99.90;;;;;;5075865;28;20085;-76
2022/07/03 07:40:10;;;;;;;7.07;2.70;;;22.30;99.90;;;;;;5074449;28;20142;-76
2022/07/03 07:42:36;;;;;;;6.93;3.42;;;22.40;99.90;;;;;;5075668;28;20502;-77
2022/07/03 07:45:02;;;;;;;6.90;3.05;;;22.40;99.90;;;;;;5075865;28;20040;-79
2022/07/03 07:47:27;;;;;;;7.13;2.97;;;22.70;99.90;;;;;;5076151;28;20421;-77
2022/07/03 07:49:53;;;;;;;9.52;2.97;;;22.70;99.90;;;;;;5076120;28;20036;-77
2022/07/03 07:52:18;;;;;;;8.07;2.60;;;22.70;99.90;;;;;;5075189;28;20075;-77
2022/07/03 07:54:44;;;;;;;5.50;2.47;;;22.50;99.90;;;;;;5075943;28;20049;-76
2022/07/03 07:57:10;;;;;;;11.63;3.20;;;22.60;99.90;;;;;;5074397;28;20041;-77
2022/07/03 07:59:35;;;;;;;5.40;1.98;;;22.80;99.90;;;;;;5075566;28;20044;-77
2022/07/03 08:07:29;;;;;;;6.95;2.72;;;23.20;99.90;;;;;;5075462;28;20094;-77
2022/07/03 08:09:55;;;;;;;6.85;2.20;;;23.30;99.90;;;;;;5075341;28;20037;-77
2022/07/03 08:12:21;;;;;;;5.30;2.30;;;23.50;99.90;;;;;;5075331;28;20492;-77
2022/07/03 08:14:46;;;;;;;5.32;2.63;;;23.50;99.90;;;;;;5075504;28;20540;-77
2022/07/03 08:17:12;;;;;;;5.32;1.73;;;23.70;99.90;;;;;;5075707;28;20461;-78
2022/07/03 08:19:38;;;;;;;3.38;1.35;;;23.60;99.90;;;;;;5074878;28;20055;-77
2022/07/03 08:22:03;;;;;;;6.05;1.83;;;23.70;99.90;;;;;;5082505;28;20119;-78
2022/07/03 08:24:29;;;;;;;3.25;1.55;;;24.00;99.90;;;;;;5079226;28;20041;-77
2022/07/03 08:26:55;;;;;;;10.20;1.65;;;24.10;99.90;;;;;;5075266;28;20094;-77
2022/07/03 08:29:20;;;;;;;7.43;1.52;;;24.10;99.90;;;;;;5075307;28;20047;-77
2022/07/03 08:31:46;;;;;;;4.55;1.38;;;24.10;99.90;;;;;;5075018;28;20036;-77
2022/07/03 08:34:13;;;;;;;4.55;1.52;;;23.90;99.90;;;;;;5077492;28;20080;-77
2022/07/03 08:36:42;;;;;;;4.72;1.25;;;23.90;99.90;;;;;;5095140;28;20040;-77
2022/07/03 08:39:09;;;;;;;2.90;1.25;;;24.00;99.90;;;;;;5094887;28;20478;-77
2022/07/03 08:41:39;;;;;;;4.32;1.20;;;24.10;99.90;;;;;;5095277;28;20051;-77
2022/07/03 08:44:05;;;;;;;12.43;1.52;;;24.20;99.90;;;;;;5095244;28;20040;-77
2022/07/03 08:46:32;;;;;;;4.85;1.20;;;24.40;99.90;;;;;;5095050;28;20051;-77
2022/07/03 08:49:02;;;;;;;3.22;1.52;;;24.40;99.90;;;;;;5094008;28;20052;-78
2022/07/03 08:51:28;;;;;;;5.35;1.20;;;24.50;99.90;;;;;;5089739;28;20463;-78
2022/07/03 08:53:54;;;;;;;8.35;1.52;;;24.70;99.90;;;;;;5083619;28;20046;-77
2022/07/03 08:56:24;;;;;;;16.00;2.28;;;24.80;99.90;;;;;;5073251;28;20528;-77
2022/07/03 08:58:50;;;;;;;7.50;2.53;;;24.70;99.90;;;;;;5074348;28;20131;-78
2022/07/03 09:01:18;;;;;;;9.15;1.98;;;24.70;99.90;;;;;;5077048;28;20127;-78
2022/07/03 09:03:44;;;;;;;8.32;2.25;;;24.70;99.90;;;;;;5082632;28;20035;-77
2022/07/03 09:06:12;;;;;;;9.88;2.30;;;24.90;99.90;;;;;;5074202;28;20123;-77
2022/07/03 09:08:39;;;;;;;11.38;2.35;;;25.00;99.90;;;;;;5074221;28;20471;-77
2022/07/03 09:11:05;;;;;;;11.02;2.38;;;25.20;99.90;;;;;;5074441;28;20037;-77
2022/07/03 09:13:31;;;;;;;11.30;2.70;;;25.30;99.90;;;;;;5081850;28;20071;-76
2022/07/03 09:15:56;;;;;;;15.15;2.78;;;25.30;99.90;;;;;;5093155;28;20058;-77
2022/07/03 09:18:40;;;;;;;14.45;2.97;;;25.10;99.90;;;;;;5094299;28;20070;-77
2022/07/03 09:21:06;;;;;;;8.88;2.55;;;24.50;99.90;;;;;;5092740;28;20057;-77
2022/07/03 09:23:40;;;;;;;14.73;2.63;;;24.20;99.90;;;;;;5081941;28;20047;-77
2022/07/03 09:26:06;;;;;;;9.02;2.60;;;24.40;99.90;;;;;;5073100;28;20056;-77
2022/07/03 09:28:46;;;;;;;9.25;2.78;;;24.20;99.90;;;;;;5071284;28;20044;-77
2022/07/03 09:31:13;;;;;;;7.53;2.70;;;24.00;99.90;;;;;;5073562;28;20045;-78
2022/07/03 09:34:09;;;;;;;9.43;2.95;;;23.30;99.90;;;;;;5073799;28;20055;-77
2022/07/03 09:36:44;;;;;;;10.40;2.75;;;23.40;99.90;;;;;;5074137;28;20043;-77
2022/07/03 09:39:36;;;;;;;11.40;2.67;;;23.30;99.90;;;;;;5073920;28;20044;-77
2022/07/03 09:42:05;;;;;;;13.50;2.83;;;23.40;99.90;;;;;;5074081;28;20052;-77
2022/07/03 09:44:34;;;;;;;11.82;2.53;;;23.40;99.90;;;;;;5073855;28;20037;-77
2022/07/03 09:47:25;;;;;;;9.98;2.83;;;23.50;99.90;;;;;;5073826;28;20045;-77
2022/07/03 09:49:54;;;;;;;10.95;2.50;;;23.20;99.90;;;;;;5071344;28;20105;-77
2022/07/03 09:52:38;;;;;;;14.75;3.25;;;22.90;99.90;;;;;;5073576;28;20048;-77
2022/07/03 09:55:10;;;;;;;11.82;2.75;;;23.00;99.90;;;;;;5073540;28;20075;-77
2022/07/03 09:57:42;;;;;;;9.10;2.42;;;23.10;99.90;;;;;;5072263;28;20411;-76
2022/07/03 10:00:25;;;;;;;7.18;2.17;;;23.10;99.90;;;;;;5073564;28;20041;-76
2022/07/03 10:03:09;;;;;;;10.50;3.05;;;23.20;99.90;;;;;;5073799;28;20041;-78
2022/07/03 10:05:42;;;;;;;10.23;2.50;;;23.10;99.90;;;;;;5073756;28;20047;-76
2022/07/03 10:08:15;;;;;;;12.30;2.60;;;22.80;99.90;;;;;;5073437;28;20044;-77
2022/07/03 10:10:48;;;;;;;7.85;2.65;;;22.70;99.90;;;;;;5073241;28;20075;-82
2022/07/03 10:13:14;;;;;;;14.95;4.32;;;22.70;99.90;;;;;;5073272;28;20472;-77
2022/07/03 10:15:42;;;;;;;12.25;2.60;;;22.90;99.90;;;;;;5073188;28;20041;-76
2022/07/03 10:18:12;;;;;;;9.27;2.80;;;23.10;99.90;;;;;;5071885;28;20076;-76
2022/07/03 10:20:47;;;;;;;14.00;2.53;;;23.30;99.90;;;;;;5072971;28;20197;-74
2022/07/03 10:23:15;;;;;;;15.18;3.20;;;23.40;99.90;;;;;;5073163;28;20051;-76
2022/07/03 10:25:43;;;;;;;10.55;2.35;;;23.00;99.90;;;;;;5073119;28;20391;-76
2022/07/03 10:28:11;;;;;;;11.95;3.35;;;22.80;99.90;;;;;;5073328;28;20045;-76
2022/07/03 10:30:38;;;;;;;10.40;2.95;;;22.60;99.90;;;;;;5073169;28;20480;-78
2022/07/03 10:33:03;;;;;;;9.98;2.70;;;22.50;99.90;;;;;;5073064;28;20040;-76
2022/07/03 10:35:33;;;;;;;14.80;3.05;;;22.40;99.90;;;;;;5073115;28;20040;-77
2022/07/03 10:38:02;;;;;;;12.40;2.90;;;22.20;99.90;;;;;;5073056;28;20057;-77
2022/07/03 10:46:17;;;;;;;9.57;2.50;;;22.10;99.90;;;;;;5073013;28;20131;-76
2022/07/03 10:48:59;;;;;;;7.90;2.25;;;21.80;99.90;;;;;;5073368;28;20052;-76
2022/07/03 10:51:26;;;;;;;9.07;2.47;;;21.80;99.90;;;;;;5073051;28;20395;-76
2022/07/03 10:54:12;;;;;;;11.73;2.50;;;21.80;99.90;;;;;;5073293;28;20279;-76
2022/07/03 10:57:02;;;;;;;8.73;2.60;;;21.90;99.90;;;;;;5073302;28;20093;-76
2022/07/03 10:59:37;;;;;;;8.50;2.72;;;21.80;99.90;;;;;;5073642;28;20052;-76
2022/07/03 11:02:36;;;;;;;9.48;2.33;;;21.70;99.90;;;;;;5073193;28;20051;-76
2022/07/03 11:05:03;;;;;;;10.60;3.17;;;21.60;99.90;;;;;;5073046;28;20132;-76
2022/07/03 11:07:30;;;;;;;7.72;2.40;;;21.60;99.90;;;;;;5073211;28;20045;-76
2022/07/03 11:10:13;;;;;;;10.45;2.65;;;21.50;99.90;;;;;;5073153;28;20071;-76
2022/07/03 11:12:57;;;;;;;8.70;2.58;;;21.40;99.90;;;;;;5073062;28;20045;-77
2022/07/03 11:15:48;;;;;;;4.65;1.80;;;21.60;99.90;;;;;;5073029;28;20044;-76
2022/07/03 11:18:17;;;;;;;7.95;2.83;;;21.60;99.90;;;;;;5073030;28;20041;-76
2022/07/03 11:20:42;;;;;;;7.28;2.38;;;21.50;99.90;;;;;;5071345;28;20155;-76
2022/07/03 11:23:26;;;;;;;6.13;2.25;;;21.60;99.90;;;;;;5073004;28;20068;-76
2022/07/03 11:26:18;;;;;;;7.75;2.50;;;21.80;99.90;;;;;;5072989;28;20041;-77
2022/07/03 11:28:44;;;;;;;7.65;2.45;;;21.80;99.90;;;;;;5074243;28;20048;-76
2022/07/03 11:31:16;;;;;;;6.97;2.10;;;21.90;99.90;;;;;;5076419;28;20569;-76
2022/07/03 11:33:53;;;;;;;11.30;2.05;;;22.20;99.90;;;;;;5076642;28;20052;-76
2022/07/03 11:36:22;;;;;;;8.07;2.92;;;22.50;99.90;;;;;;5076390;28;20055;-77
2022/07/03 11:39:03;;;;;;;8.95;2.42;;;22.80;99.90;;;;;;5076511;28;20125;-77
2022/07/03 11:41:35;;;;;;;5.57;2.03;;;23.10;99.90;;;;;;5076459;28;20123;-77
2022/07/03 11:44:06;;;;;;;6.20;2.13;;;23.30;99.90;;;;;;5075193;28;20094;-77
2022/07/03 11:46:37;;;;;;;4.82;2.13;;;23.60;99.90;;;;;;5076031;28;20487;-77
2022/07/03 11:49:13;;;;;;;10.18;2.38;;;23.60;99.90;;;;;;5076291;28;20037;-77
2022/07/03 11:51:42;;;;;;;6.03;1.95;;;23.50;99.90;;;;;;5076101;28;20094;-77
2022/07/03 11:54:07;;;;;;;16.42;2.80;;;23.40;99.90;;;;;;5076160;28;20051;-76
2022/07/03 11:56:35;;;;;;;6.03;2.17;;;23.20;99.90;;;;;;5076096;28;20040;-76
2022/07/03 11:59:03;;;;;;;6.50;2.05;;;23.00;99.90;;;;;;5075901;28;20044;-77
2022/07/03 12:01:34;;;;;;;4.10;1.88;;;22.90;99.90;;;;;;5075314;28;20045;-77
2022/07/03 12:04:05;;;;;;;10.15;2.83;;;22.90;99.90;;;;;;5075714;28;20499;-77
2022/07/03 12:06:42;;;;;;;7.60;2.80;;;23.00;99.90;;;;;;5075853;28;20124;-77
2022/07/03 12:09:24;;;;;;;6.72;1.88;;;23.20;99.90;;;;;;5075811;28;20045;-77
2022/07/03 12:12:05;;;;;;;8.52;2.63;;;23.30;99.90;;;;;;5075611;28;20460;-77
2022/07/03 12:14:40;;;;;;;5.50;2.10;;;23.10;99.90;;;;;;5075703;28;20495;-77
2022/07/03 12:17:17;;;;;;;7.32;1.98;;;23.20;99.90;;;;;;5075642;28;20048;-77
2022/07/03 12:19:50;;;;;;;6.80;1.92;;;23.40;99.90;;;;;;5075284;28;20488;-77
2022/07/03 12:22:41;;;;;;;3.92;2.00;;;23.60;99.90;;;;;;5074157;28;20044;-77
2022/07/03 12:25:09;;;;;;;7.53;2.10;;;23.90;99.90;;;;;;5075598;28;20049;-77
2022/07/03 12:27:37;;;;;;;6.55;2.10;;;24.10;99.90;;;;;;5075728;28;20032;-78
2022/07/03 12:30:05;;;;;;;8.35;2.33;;;24.40;99.90;;;;;;5075319;28;20071;-77
2022/07/03 12:32:31;;;;;;;5.18;1.88;;;24.30;99.90;;;;;;5075203;28;20096;-77
2022/07/03 12:34:57;;;;;;;5.20;1.92;;;24.20;99.90;;;;;;5073943;28;20124;-77
2022/07/03 12:37:44;;;;;;;7.93;2.22;;;24.00;99.90;;;;;;5075317;28;20151;-77
2022/07/03 12:40:11;;;;;;;6.90;2.33;;;24.00;99.90;;;;;;5073879;28;20095;-77
2022/07/03 12:42:49;;;;;;;4.53;1.70;;;24.20;99.90;;;;;;5075234;28;20138;-77
2022/07/03 12:45:25;;;;;;;6.05;1.90;;;24.30;99.90;;;;;;5075331;28;20036;-77
2022/07/03 12:48:03;;;;;;;6.38;2.33;;;24.30;99.90;;;;;;5075060;28;20038;-77
2022/07/03 12:50:46;;;;;;;11.68;2.22;;;24.40;99.90;;;;;;5075130;28;20037;-77
2022/07/03 12:53:32;;;;;;;14.25;2.75;;;24.40;99.90;;;;;;5074944;28;20043;-77
2022/07/03 12:56:05;;;;;;;5.75;2.08;;;24.20;99.90;;;;;;5075061;28;20045;-78
2022/07/03 13:01:26;;;;;;;3.90;1.98;;;24.00;99.90;;;;;;5074559;28;20388;-77
2022/07/03 13:03:52;;;;;;;4.63;1.67;;;24.10;99.90;;;;;;5074774;28;20783;-77
2022/07/03 13:06:19;;;;;;;5.38;1.75;;;24.20;99.90;;;;;;5081891;28;20070;-77
2022/07/03 13:08:59;;;;;;;5.30;1.45;;;24.20;99.90;;;;;;5077842;28;20047;-78
2022/07/03 13:11:36;;;;;;;5.15;1.83;;;24.40;99.90;;;;;;5074418;28;20048;-78